createdAt,value
2022-12-06T06:56:45.223Z,101277.09
2022-12-06T07:01:46.865Z,101271.78
2022-12-06T07:06:48.633Z,101274.94
2022-12-06T07:11:50.251Z,101273.69
2022-12-06T07:16:51.763Z,101280.97
2022-12-06T07:21:53.546Z,101275.22
2022-12-06T07:32:38.307Z,101280.84
2022-12-06T07:37:43.166Z,101281.53
2022-12-06T07:42:44.838Z,101282.47
2022-12-06T07:47:46.633Z,101280.84
2022-12-06T07:52:50.011Z,101288.53
2022-12-06T07:57:51.746Z,101289.38
2022-12-06T08:02:53.348Z,101290.06
2022-12-06T08:07:54.952Z,101287.94
2022-12-06T08:12:56.504Z,101288.03
2022-12-06T08:17:58.225Z,101296.97
2022-12-06T08:22:59.787Z,101297.34
2022-12-06T08:28:01.526Z,101314.16
2022-12-06T08:33:03.161Z,101308.31
2022-12-06T08:38:04.892Z,101312.03
2022-12-06T08:43:06.460Z,101318.06
2022-12-06T08:48:07.961Z,101314.13
2022-12-06T09:06:08.037Z,101322.22
2022-12-06T09:11:09.906Z,101318.94
2022-12-06T09:16:23.341Z,101311.16
2022-12-06T09:21:26.743Z,101320.22
2022-12-06T09:26:28.549Z,101324.31
2022-12-06T09:31:30.327Z,101330.47
2022-12-06T09:36:32.020Z,101329.94
2022-12-06T09:42:01.834Z,101338.16
2022-12-06T09:47:18.638Z,101342.81
2022-12-06T09:53:12.102Z,101341.84
2022-12-06T09:58:41.749Z,101339.97
2022-12-06T10:03:56.276Z,101344.63
2022-12-06T10:09:30.160Z,101335.41
2022-12-06T10:15:11.715Z,101330.66
2022-12-06T10:20:25.485Z,101331.31
2022-12-06T10:25:51.305Z,101331.75
2022-12-06T10:30:59.160Z,101322.94
2022-12-06T10:36:03.473Z,101313.53
2022-12-06T10:41:23.581Z,101311.88
2022-12-06T10:46:35.009Z,101302.41
2022-12-06T10:51:53.583Z,101305.78
2022-12-06T10:57:00.164Z,101303.06
2022-12-06T11:02:16.406Z,101302.63
2022-12-06T11:07:41.676Z,101297.72
2022-12-06T11:12:43.687Z,101297.53
2022-12-06T11:17:58.016Z,101294.78
2022-12-06T11:23:19.387Z,101296.22
2022-12-06T11:28:41.919Z,101291.00
2022-12-06T11:33:43.653Z,101287.44
2022-12-06T11:38:45.802Z,101284.38
2022-12-06T11:43:48.074Z,101290.72
2022-12-06T11:48:50.539Z,101289.09
2022-12-06T11:54:05.261Z,101289.66
2022-12-06T11:59:31.295Z,101285.00
2022-12-06T12:04:41.930Z,101274.16
2022-12-06T12:09:50.910Z,101275.94
2022-12-06T12:14:58.942Z,101285.53
2022-12-06T12:20:07.802Z,101284.97
2022-12-06T12:25:28.943Z,101286.63
2022-12-06T12:30:36.393Z,101282.25
2022-12-06T12:35:41.061Z,101276.91
2022-12-06T12:41:03.652Z,101271.94
2022-12-06T12:46:11.161Z,101270.03
2022-12-06T12:51:21.889Z,101263.03
2022-12-06T12:56:23.795Z,101267.63
2022-12-06T13:01:25.410Z,101267.78
2022-12-06T13:06:40.733Z,101265.16
2022-12-06T13:11:48.843Z,101269.41
2022-12-06T13:16:54.378Z,101260.34
2022-12-06T13:21:56.467Z,101268.56
2022-12-06T13:26:59.851Z,101259.13
2022-12-06T13:32:12.092Z,101259.13
2022-12-06T13:37:51.161Z,101251.56
2022-12-06T13:42:52.946Z,101251.97
2022-12-06T13:47:54.575Z,101259.53
2022-12-06T13:52:56.170Z,101255.34
2022-12-06T13:57:58.034Z,101243.09
2022-12-06T14:03:01.874Z,101244.03
2022-12-06T14:08:04.081Z,101249.13
2022-12-06T14:13:05.975Z,101252.03
2022-12-06T14:18:19.007Z,101250.25
2022-12-06T14:23:33.843Z,101256.63
2022-12-06T14:28:38.035Z,101247.97
2022-12-06T14:33:39.835Z,101256.72
2022-12-06T14:38:41.691Z,101247.19
2022-12-06T14:43:47.248Z,101240.84
2022-12-06T14:48:48.950Z,101248.69
2022-12-06T14:53:51.192Z,101258.16
2022-12-06T14:58:52.985Z,101255.25
2022-12-06T15:04:25.170Z,101258.56
2022-12-06T15:09:30.358Z,101262.44
2022-12-06T15:14:35.008Z,101260.13
2022-12-06T15:19:46.333Z,101255.75
2022-12-06T15:24:50.581Z,101252.88
2022-12-06T15:29:52.763Z,101250.25
2022-12-06T15:34:54.354Z,101243.16
2022-12-06T15:39:55.932Z,101242.72
2022-12-06T15:44:58.227Z,101233.66
2022-12-06T15:49:59.959Z,101241.31
2022-12-06T15:55:01.877Z,101247.06
2022-12-06T16:00:04.517Z,101250.38
2022-12-06T16:05:07.403Z,101245.59
2022-12-06T16:10:09.367Z,101247.78
2022-12-06T16:15:11.121Z,101248.19
2022-12-06T16:20:16.001Z,101245.34
2022-12-06T16:25:17.781Z,101244.78
2022-12-06T16:30:32.433Z,101251.66
2022-12-06T16:35:34.314Z,101250.13
2022-12-06T16:40:35.964Z,101249.31
2022-12-06T16:45:40.670Z,101244.25
2022-12-06T16:50:42.742Z,101247.41
2022-12-06T16:55:44.620Z,101242.19
2022-12-06T17:00:46.555Z,101249.16
2022-12-06T17:05:48.248Z,101256.97
2022-12-06T17:10:50.140Z,101252.16
2022-12-06T17:15:52.848Z,101248.75
2022-12-06T17:20:54.531Z,101242.88
2022-12-06T17:25:57.330Z,101233.69
2022-12-06T17:30:59.026Z,101229.59
2022-12-06T17:36:08.508Z,101227.69
2022-12-06T17:41:19.037Z,101233.00
2022-12-06T17:46:20.848Z,101226.44
2022-12-06T17:51:23.141Z,101223.03
2022-12-06T17:56:29.670Z,101225.09
2022-12-06T18:01:51.294Z,101220.84
2022-12-06T18:06:54.401Z,101216.06
2022-12-06T18:11:56.067Z,101226.16
2022-12-06T18:16:57.713Z,101225.50
2022-12-06T18:21:59.469Z,101224.81
2022-12-06T18:27:01.265Z,101226.59
2022-12-06T18:32:03.889Z,101229.19
2022-12-06T18:37:05.994Z,101225.50
2022-12-06T18:42:07.820Z,101225.75
2022-12-06T18:47:09.504Z,101224.53
2022-12-06T18:52:11.097Z,101227.53
2022-12-06T18:57:12.720Z,101226.03
2022-12-06T19:02:14.822Z,101221.09
2022-12-06T19:07:20.580Z,101224.38
2022-12-06T19:12:25.511Z,101221.22
2022-12-06T19:17:27.342Z,101226.41
2022-12-06T19:22:28.996Z,101223.00
2022-12-06T19:27:30.747Z,101222.59
2022-12-06T19:32:33.230Z,101227.69
2022-12-06T19:37:34.918Z,101213.81
2022-12-06T19:42:39.783Z,101222.47
2022-12-06T19:47:41.425Z,101223.25
2022-12-06T19:52:43.032Z,101222.44
2022-12-06T19:57:45.212Z,101212.84
2022-12-06T20:02:46.865Z,101215.31
2022-12-06T20:07:48.509Z,101223.25
2022-12-06T20:12:50.447Z,101217.34
2022-12-06T20:17:52.025Z,101203.16
2022-12-06T20:22:54.817Z,101209.72
2022-12-06T20:27:56.476Z,101210.81
2022-12-06T20:32:58.354Z,101206.97
2022-12-06T20:37:59.920Z,101208.72
2022-12-06T20:43:01.968Z,101203.25
2022-12-06T20:48:03.882Z,101194.22
2022-12-06T20:53:05.479Z,101200.03
2022-12-06T20:58:07.071Z,101194.75
2022-12-06T21:03:09.001Z,101188.16
2022-12-06T21:08:10.836Z,101186.38
2022-12-06T21:13:12.574Z,101185.25
2022-12-06T21:18:18.914Z,101183.91
2022-12-06T21:23:21.611Z,101179.09
2022-12-06T21:28:23.562Z,101172.09
2022-12-06T21:33:25.784Z,101167.75
2022-12-06T21:38:30.014Z,101172.41
2022-12-06T21:43:31.631Z,101175.28
2022-12-06T21:48:33.705Z,101170.63
2022-12-06T21:53:36.020Z,101181.16
2022-12-06T21:58:37.832Z,101175.66
2022-12-06T22:03:39.990Z,101171.44
2022-12-06T22:08:43.252Z,101181.06
2022-12-06T22:13:45.618Z,101168.63
2022-12-06T22:18:47.251Z,101178.88
2022-12-06T22:23:48.776Z,101178.06
2022-12-06T22:28:51.042Z,101175.72
2022-12-06T22:33:53.276Z,101170.38
2022-12-06T22:38:57.050Z,101175.84
2022-12-06T22:44:01.302Z,101169.25
2022-12-06T22:49:03.910Z,101165.19
2022-12-06T22:54:09.375Z,101172.44
2022-12-06T22:59:10.946Z,101166.56
2022-12-06T23:04:12.487Z,101167.41
2022-12-06T23:09:15.901Z,101157.69
2022-12-06T23:14:17.483Z,101159.06
2022-12-06T23:19:18.971Z,101153.28
2022-12-06T23:24:20.458Z,101156.75
2022-12-06T23:29:21.952Z,101142.66
2022-12-06T23:34:24.577Z,101148.00
2022-12-06T23:39:26.118Z,101145.25
2022-12-06T23:44:27.671Z,101147.69
2022-12-06T23:49:29.182Z,101145.06
2022-12-06T23:54:30.725Z,101139.84
2022-12-06T23:59:32.329Z,101133.00
